Terminal Aerodrome Forecast
Issued by NWS

Home | Current Version | Previous Version | Graphics & Text | Print | Product List | Glossary On
Versions: 1 2 3 4 5 6 7 8 9 10 11 12 13 14 15 16
000
FTUS43 KICT 151722
TAFSLN
TAF
KSLN 151722Z 1518/1618 34014G20KT P6SM SKC
     FM152300 36007KT P6SM SCT250
     FM160300 VRB03KT P6SM SCT250
     FM160900 13007KT P6SM SKC
     FM161400 15012KT P6SM SCT250=

USA.gov is the U.S. government's official web portal to all federal, state and local government web resources and services.